createdAt,value
2019-04-23T00:01:26.817Z,43.10
2019-04-23T00:03:38.873Z,43.10
2019-04-23T00:06:18.961Z,43.20
2019-04-23T00:08:50.216Z,43.40
2019-04-23T00:16:20.427Z,43.30
2019-04-23T00:18:46.124Z,43.40
2019-04-23T00:21:26.625Z,43.40
2019-04-23T00:24:07.550Z,43.50
2019-04-23T00:26:30.590Z,43.40
2019-04-23T00:29:03.635Z,43.40
2019-04-23T00:31:31.667Z,43.50
2019-04-23T00:33:57.714Z,43.50
2019-04-23T00:36:32.681Z,43.40
2019-04-23T00:38:57.211Z,43.60
2019-04-23T00:41:30.879Z,43.70
2019-04-23T00:44:02.012Z,44.00
2019-04-23T00:49:05.847Z,43.90
2019-04-23T00:51:34.680Z,43.90
2019-04-23T00:54:06.168Z,44.10
2019-04-23T01:01:42.758Z,44.00
2019-04-23T01:04:04.762Z,44.00
2019-04-23T01:06:39.120Z,43.90
2019-04-23T01:09:22.515Z,44.00
2019-04-23T01:11:38.922Z,44.00
2019-04-23T01:14:11.644Z,44.00
2019-04-23T01:16:38.046Z,43.90
2019-04-23T01:19:24.430Z,44.10
2019-04-23T01:21:35.054Z,44.30
2019-04-23T01:24:28.744Z,44.20
2019-04-23T01:27:39.039Z,44.20
2019-04-23T01:30:08.134Z,44.30
2019-04-23T01:32:34.859Z,44.30
2019-04-23T01:35:20.353Z,44.20
2019-04-23T01:37:30.544Z,44.30
2019-04-23T01:40:04.069Z,44.30
2019-04-23T01:42:44.974Z,44.30
2019-04-23T01:45:07.337Z,44.40
2019-04-23T01:47:39.012Z,44.30
2019-04-23T01:50:20.134Z,44.60
2019-04-23T01:52:38.036Z,44.50
2019-04-23T01:55:09.989Z,44.50
2019-04-23T01:57:37.538Z,44.50
2019-04-23T02:02:45.641Z,44.60
2019-04-23T02:05:20.827Z,44.60
2019-04-23T02:07:50.734Z,44.70
2019-04-23T02:10:20.532Z,44.60
2019-04-23T02:12:47.661Z,44.80
2019-04-23T02:15:18.331Z,44.60
2019-04-23T02:17:53.550Z,44.60
2019-04-23T02:20:23.851Z,44.70
2019-04-23T02:23:11.642Z,44.70
2019-04-23T02:25:44.060Z,44.80
2019-04-23T02:28:28.644Z,44.80
2019-04-23T02:41:03.723Z,45.10
2019-04-23T02:48:24.994Z,45.20
2019-04-23T02:53:37.651Z,45.40
2019-04-23T02:58:43.760Z,45.50
2019-04-23T03:11:07.374Z,45.80
2019-04-23T03:13:39.180Z,46.10
2019-04-23T03:16:34.368Z,45.80
2019-04-23T03:27:19.264Z,45.90
2019-04-23T03:29:49.506Z,46.10
2019-04-23T03:32:45.369Z,46.30
2019-04-23T03:40:00.174Z,46.30
2019-04-23T03:42:17.750Z,46.20
2019-04-23T03:44:58.778Z,46.20
2019-04-23T03:47:26.806Z,46.30
2019-04-23T03:50:04.888Z,46.40
2019-04-23T03:52:36.891Z,46.40
2019-04-23T03:54:44.555Z,46.50
2019-04-23T03:57:30.302Z,46.50
2019-04-23T03:59:55.033Z,46.70
2019-04-23T04:02:44.040Z,46.80
2019-04-23T04:04:49.805Z,46.70
2019-04-23T04:07:46.945Z,46.90
2019-04-23T04:09:51.684Z,46.70
2019-04-23T04:17:33.026Z,47.00
2019-04-23T04:22:46.584Z,47.50
2019-04-23T04:25:09.291Z,47.00
2019-04-23T04:27:45.858Z,47.10
2019-04-23T04:40:23.395Z,47.50
2019-04-23T04:42:42.202Z,47.30
2019-04-23T04:50:31.315Z,47.30
2019-04-23T04:55:21.470Z,47.40
2019-04-23T05:10:38.539Z,47.80
2019-04-23T05:13:03.943Z,47.60
2019-04-23T05:15:25.754Z,47.60
2019-04-23T05:20:53.314Z,47.70
2019-04-23T05:23:22.862Z,47.50
2019-04-23T05:25:49.981Z,47.40
2019-04-23T05:28:27.957Z,47.60
2019-04-23T05:30:51.582Z,47.60
2019-04-23T05:40:59.213Z,47.50
2019-04-23T05:43:21.762Z,47.70
2019-04-23T05:46:14.231Z,48.10
2019-04-23T05:48:23.541Z,47.70
2019-04-23T05:51:06.094Z,47.80
2019-04-23T05:53:26.983Z,47.80
2019-04-23T05:56:01.968Z,47.70
2019-04-23T05:58:32.989Z,47.80
2019-04-23T06:01:33.604Z,48.00
2019-04-23T06:03:49.119Z,47.90
2019-04-23T06:06:21.726Z,48.20
2019-04-23T06:08:53.341Z,48.00
2019-04-23T06:14:20.403Z,47.80
2019-04-23T06:16:55.259Z,48.10
2019-04-23T06:19:17.133Z,48.30
2019-04-23T06:22:04.448Z,47.90
2019-04-23T06:24:22.240Z,47.90
2019-04-23T06:26:45.600Z,48.00
2019-04-23T06:29:20.484Z,48.30
2019-04-23T06:31:48.775Z,48.40
2019-04-23T06:37:04.995Z,48.40
2019-04-23T06:39:15.947Z,48.50
2019-04-23T06:41:49.908Z,48.50
2019-04-23T06:44:31.892Z,48.30
2019-04-23T06:47:29.368Z,48.40
2019-04-23T06:49:50.951Z,48.40
2019-04-23T06:52:21.781Z,48.50
2019-04-23T06:57:22.083Z,48.30
2019-04-23T06:59:54.730Z,48.30
2019-04-23T07:02:30.619Z,48.20
2019-04-23T07:07:42.535Z,48.40
2019-04-23T07:09:57.927Z,48.20
2019-04-23T07:12:29.757Z,48.30
2019-04-23T07:15:11.378Z,48.40
2019-04-23T07:17:24.995Z,48.30
2019-04-23T07:20:01.219Z,48.10
2019-04-23T07:22:29.021Z,48.10
2019-04-23T07:25:08.167Z,48.20
2019-04-23T07:27:34.663Z,48.20
2019-04-23T07:30:11.627Z,48.40
2019-04-23T07:32:37.723Z,48.40
2019-04-23T07:37:43.214Z,48.30
2019-04-23T07:42:59.967Z,48.50
2019-04-23T07:45:31.847Z,48.70
2019-04-23T07:53:22.953Z,48.40
2019-04-23T08:03:21.055Z,48.30
2019-04-23T08:05:52.397Z,48.20
2019-04-23T08:08:16.858Z,48.20
2019-04-23T08:13:53.268Z,48.30
2019-04-23T08:16:23.284Z,48.10
2019-04-23T08:18:49.811Z,48.20
2019-04-23T08:21:15.109Z,48.20
2019-04-23T08:26:55.143Z,48.10
2019-04-23T08:29:26.887Z,48.10
2019-04-23T08:32:06.949Z,48.10
2019-04-23T08:34:40.131Z,48.10
2019-04-23T08:39:38.614Z,48.10
2019-04-23T08:42:28.709Z,48.10
2019-04-23T08:48:07.483Z,48.00
2019-04-23T08:50:35.882Z,47.90
2019-04-23T08:53:17.816Z,47.90
2019-04-23T08:55:38.774Z,47.90
2019-04-23T08:58:06.023Z,47.90
2019-04-23T09:00:45.609Z,47.80
2019-04-23T09:03:25.129Z,47.80
2019-04-23T09:05:46.795Z,48.50
2019-04-23T09:08:15.008Z,47.80
2019-04-23T09:10:47.901Z,47.70
2019-04-23T09:13:40.178Z,47.70
2019-04-23T09:18:17.961Z,47.80
2019-04-23T09:20:46.004Z,47.60
2019-04-23T09:23:20.573Z,47.60
2019-04-23T09:25:54.183Z,47.80
2019-04-23T09:28:30.550Z,47.70
2019-04-23T09:30:57.816Z,47.80
2019-04-23T09:33:39.692Z,47.80
2019-04-23T09:36:29.524Z,47.70
2019-04-23T09:39:12.786Z,47.80
2019-04-23T09:42:05.522Z,47.70
2019-04-23T09:45:00.114Z,47.80
2019-04-23T09:47:45.826Z,47.70
2019-04-23T09:50:18.906Z,47.70
2019-04-23T09:55:24.501Z,47.90
2019-04-23T09:57:50.259Z,47.70
2019-04-23T10:00:25.464Z,47.50
2019-04-23T10:02:33.924Z,47.40
2019-04-23T10:05:04.987Z,47.30
2019-04-23T10:07:37.642Z,47.40
2019-04-23T10:09:53.442Z,47.50
2019-04-23T10:12:24.124Z,47.40
2019-04-23T10:15:04.859Z,47.30
2019-04-23T10:17:24.462Z,47.50
2019-04-23T10:19:55.058Z,47.30
2019-04-23T10:22:25.124Z,47.50
2019-04-23T10:24:55.295Z,47.40
2019-04-23T10:27:25.180Z,47.50
2019-04-23T10:29:56.069Z,47.60
2019-04-23T10:32:27.243Z,47.50
2019-04-23T10:35:10.329Z,47.50
2019-04-23T10:37:39.643Z,47.40
2019-04-23T10:40:03.563Z,47.40
2019-04-23T10:42:31.993Z,47.50
2019-04-23T10:45:42.440Z,47.50
2019-04-23T10:49:18.071Z,47.40
2019-04-23T10:54:19.585Z,47.40
2019-04-23T10:56:42.526Z,47.40
2019-04-23T10:59:06.165Z,47.40
2019-04-23T11:01:43.498Z,47.30
2019-04-23T11:04:45.075Z,47.50
2019-04-23T11:06:47.306Z,47.20
2019-04-23T11:09:27.663Z,47.20
2019-04-23T11:12:01.143Z,47.20
2019-04-23T11:14:34.324Z,47.20
2019-04-23T11:19:32.632Z,47.10
2019-04-23T11:22:07.963Z,47.20
2019-04-23T11:24:39.873Z,47.10
2019-04-23T11:26:56.936Z,47.00
2019-04-23T11:29:34.270Z,47.20
2019-04-23T11:32:19.383Z,47.30
2019-04-23T11:35:01.073Z,47.20
2019-04-23T11:37:15.747Z,47.10
2019-04-23T11:39:58.083Z,47.00
2019-04-23T11:42:14.645Z,47.00
2019-04-23T11:47:14.200Z,46.70
2019-04-23T11:57:29.813Z,46.40
2019-04-23T11:59:47.310Z,46.50
2019-04-23T12:02:23.244Z,46.40
2019-04-23T12:05:11.659Z,46.40
2019-04-23T12:07:53.849Z,46.30
2019-04-23T12:10:40.751Z,46.20
2019-04-23T12:13:03.222Z,46.70
2019-04-23T12:15:32.654Z,46.20
2019-04-23T12:18:01.053Z,46.10
2019-04-23T12:20:38.063Z,46.80
2019-04-23T12:23:12.214Z,46.20
2019-04-23T12:25:58.253Z,46.00
2019-04-23T12:28:06.673Z,46.00
2019-04-23T12:33:15.144Z,45.90
2019-04-23T12:35:39.289Z,45.90
2019-04-23T12:38:25.407Z,46.00
2019-04-23T12:40:52.964Z,46.10
2019-04-23T12:43:14.571Z,46.20
2019-04-23T12:45:44.259Z,46.10
2019-04-23T12:50:58.655Z,45.90
2019-04-23T12:58:26.774Z,45.80
2019-04-23T13:00:48.464Z,45.70
2019-04-23T13:03:25.430Z,45.80
2019-04-23T13:05:43.513Z,45.80
2019-04-23T13:10:49.631Z,45.60
2019-04-23T13:13:31.485Z,45.80
2019-04-23T13:15:51.934Z,45.80
2019-04-23T13:18:31.487Z,45.80
2019-04-23T13:21:01.555Z,45.60
2019-04-23T13:23:31.098Z,45.70
2019-04-23T13:25:59.820Z,45.90
2019-04-23T13:28:38.751Z,45.70
2019-04-23T13:38:41.738Z,45.90
2019-04-23T13:41:17.344Z,45.80
2019-04-23T13:43:48.442Z,45.70
2019-04-23T13:48:39.685Z,45.70
2019-04-23T13:51:22.629Z,45.60
2019-04-23T13:59:06.968Z,45.30
2019-04-23T14:01:25.413Z,45.50
2019-04-23T14:03:45.228Z,45.40
2019-04-23T14:11:24.841Z,45.30
2019-04-23T14:21:26.975Z,45.20
2019-04-23T14:28:53.402Z,45.40
2019-04-23T14:31:24.023Z,45.30
2019-04-23T14:40:12.249Z,45.40
2019-04-23T14:41:26.106Z,45.00
2019-04-23T14:54:35.403Z,45.10
2019-04-23T14:56:56.829Z,45.00
2019-04-23T14:59:15.040Z,45.00
2019-04-23T15:01:58.165Z,44.70
2019-04-23T15:04:27.313Z,44.50
2019-04-23T15:09:28.039Z,45.20
2019-04-23T15:12:04.849Z,45.30
2019-04-23T15:14:38.010Z,45.30
2019-04-23T15:17:00.384Z,44.80
2019-04-23T15:19:58.136Z,44.90
2019-04-23T15:22:08.355Z,44.70
2019-04-23T15:29:27.967Z,45.00
2019-04-23T15:32:13.070Z,45.00
2019-04-23T15:34:36.832Z,45.00
2019-04-23T15:37:18.994Z,44.80
2019-04-23T15:39:47.638Z,44.90
2019-04-23T15:44:42.005Z,44.70
2019-04-23T15:47:23.096Z,44.80
2019-04-23T15:49:51.491Z,44.80
2019-04-23T15:52:39.380Z,45.00
2019-04-23T15:54:52.318Z,45.00
2019-04-23T15:57:28.400Z,44.90
2019-04-23T15:59:47.945Z,44.80
2019-04-23T16:01:51.122Z,44.80
2019-04-23T16:04:20.805Z,45.00
2019-04-23T16:06:51.794Z,45.10
2019-04-23T16:09:59.817Z,45.00
2019-04-23T16:12:20.388Z,45.00
2019-04-23T16:15:02.682Z,44.90
2019-04-23T16:22:39.739Z,45.20
2019-04-23T16:27:48.975Z,45.80
2019-04-23T16:35:43.362Z,45.30
2019-04-23T16:38:18.139Z,45.30
2019-04-23T16:43:08.646Z,45.50
2019-04-23T16:45:36.892Z,45.40
2019-04-23T16:48:23.977Z,45.50
2019-04-23T16:50:58.105Z,45.60
2019-04-23T16:53:19.802Z,45.60
2019-04-23T16:58:22.225Z,45.80
2019-04-23T17:01:05.933Z,45.80
2019-04-23T17:03:19.332Z,45.90
2019-04-23T17:05:54.586Z,46.00
2019-04-23T17:08:37.454Z,45.90
2019-04-23T17:10:53.670Z,46.20
2019-04-23T17:13:20.160Z,46.30
2019-04-23T17:18:29.445Z,46.40
2019-04-23T17:20:53.078Z,46.40
2019-04-23T17:23:31.681Z,46.40
2019-04-23T17:26:00.782Z,46.50
2019-04-23T17:28:21.721Z,46.50
2019-04-23T17:31:18.789Z,46.60
2019-04-23T17:33:35.604Z,46.60
2019-04-23T17:38:55.311Z,46.70
2019-04-23T17:44:12.324Z,46.70
2019-04-23T17:46:34.270Z,46.80
2019-04-23T17:49:04.855Z,46.90
2019-04-23T17:51:50.858Z,47.00
2019-04-23T17:54:12.080Z,47.10
2019-04-23T17:56:47.714Z,47.20
2019-04-23T17:59:15.896Z,47.30
2019-04-23T18:01:57.094Z,47.20
2019-04-23T18:09:25.515Z,47.40
2019-04-23T18:11:49.958Z,47.50
2019-04-23T18:14:11.224Z,47.50
2019-04-23T18:19:20.218Z,47.70
2019-04-23T18:22:24.517Z,47.70
2019-04-23T18:25:19.503Z,47.80
2019-04-23T18:27:48.279Z,47.90
2019-04-23T18:30:44.612Z,47.80
2019-04-23T18:34:00.165Z,48.00
2019-04-23T18:35:56.645Z,48.00
2019-04-23T18:41:06.198Z,48.80
2019-04-23T18:43:41.168Z,48.20
2019-04-23T18:56:11.342Z,48.50
2019-04-23T18:58:54.685Z,48.50
2019-04-23T19:01:14.013Z,48.50
2019-04-23T19:04:00.340Z,48.60
2019-04-23T19:06:37.715Z,48.60
2019-04-23T19:09:52.060Z,48.70
2019-04-23T19:15:04.511Z,48.70
2019-04-23T19:17:42.074Z,48.90
2019-04-23T19:19:49.959Z,48.80
2019-04-23T19:22:43.205Z,48.80
2019-04-23T19:29:58.223Z,48.90
2019-04-23T19:32:28.338Z,49.00
2019-04-23T19:34:49.215Z,48.90
2019-04-23T19:37:39.884Z,49.10
2019-04-23T19:39:53.322Z,49.10
2019-04-23T19:42:42.515Z,49.30
2019-04-23T19:44:54.405Z,49.20
2019-04-23T19:47:37.815Z,49.10
2019-04-23T19:49:57.046Z,49.30
2019-04-23T19:52:52.550Z,49.30
2019-04-23T19:55:12.078Z,49.40
2019-04-23T20:00:02.460Z,49.40
2019-04-23T20:02:56.746Z,49.50
2019-04-23T20:05:05.679Z,49.50
2019-04-23T20:07:47.398Z,49.60
2019-04-23T20:10:04.089Z,49.60
2019-04-23T20:12:42.881Z,49.70
2019-04-23T20:15:31.614Z,49.80
2019-04-23T20:20:08.783Z,49.90
2019-04-23T20:22:50.771Z,50.00
2019-04-23T20:25:38.681Z,50.10
2019-04-23T20:27:58.811Z,50.00
2019-04-23T20:30:41.236Z,50.10
2019-04-23T20:35:52.352Z,50.20
2019-04-23T20:40:45.395Z,50.30
2019-04-23T20:43:00.282Z,50.30
2019-04-23T20:45:56.899Z,50.40
2019-04-23T20:48:09.322Z,50.40
2019-04-23T20:50:39.680Z,50.50
2019-04-23T20:53:05.018Z,50.50
2019-04-23T20:55:58.446Z,50.60
2019-04-23T20:58:23.135Z,50.60
2019-04-23T21:01:18.846Z,50.60
2019-04-23T21:06:06.915Z,50.60
2019-04-23T21:11:35.125Z,50.70
2019-04-23T21:16:36.085Z,50.80
2019-04-23T21:18:57.145Z,50.80
2019-04-23T21:21:33.839Z,50.90
2019-04-23T21:26:35.603Z,50.90
2019-04-23T21:28:58.922Z,51.00
2019-04-23T21:31:41.334Z,51.00
2019-04-23T21:34:12.867Z,51.00
2019-04-23T21:36:46.355Z,51.10
2019-04-23T21:42:20.816Z,51.30
2019-04-23T21:44:46.896Z,51.30
2019-04-23T21:47:17.107Z,51.30
2019-04-23T21:50:08.444Z,51.40
2019-04-23T21:52:17.955Z,51.40
2019-04-23T21:54:49.191Z,51.50
2019-04-23T21:57:29.496Z,51.50
2019-04-23T21:59:56.251Z,51.60
2019-04-23T22:02:32.455Z,51.70
2019-04-23T22:05:01.131Z,51.60
2019-04-23T22:07:40.766Z,51.70
2019-04-23T22:09:57.214Z,51.80
2019-04-23T22:12:54.722Z,52.50
2019-04-23T22:14:57.843Z,51.80
2019-04-23T22:17:34.386Z,51.90
2019-04-23T22:22:42.020Z,52.00
2019-04-23T22:25:13.157Z,52.10
2019-04-23T22:27:39.653Z,52.10
2019-04-23T22:30:11.287Z,52.20
2019-04-23T22:35:07.582Z,53.00
2019-04-23T22:37:45.796Z,52.30
2019-04-23T22:40:04.740Z,52.40
2019-04-23T22:47:47.757Z,52.50
2019-04-23T22:50:11.197Z,52.70
2019-04-23T22:52:48.722Z,52.60
2019-04-23T22:57:58.710Z,52.80
2019-04-23T23:03:22.836Z,52.80
2019-04-23T23:08:16.661Z,52.90
2019-04-23T23:10:53.958Z,53.00
2019-04-23T23:13:20.575Z,53.00
2019-04-23T23:15:59.619Z,53.10
2019-04-23T23:18:19.549Z,53.30
2019-04-23T23:20:55.885Z,53.10
2019-04-23T23:23:18.013Z,53.20
2019-04-23T23:25:53.960Z,53.20
2019-04-23T23:31:05.239Z,53.40
2019-04-23T23:33:24.676Z,53.40
2019-04-23T23:36:00.094Z,53.50
2019-04-23T23:38:33.302Z,53.50
2019-04-23T23:41:03.667Z,53.50
2019-04-23T23:46:18.615Z,53.70
2019-04-23T23:48:28.068Z,53.80
2019-04-23T23:51:17.031Z,53.80
2019-04-23T23:53:42.845Z,53.80
2019-04-23T23:56:10.942Z,53.80
